KAMG

Bacon County Airport

Alma, Georgia, USA
METAR KAMG 200653Z AUTO 12003KT 5SM BR SCT021 18/17 A3033 RMK AO2 SLP270 T01830172 $
Observed Flight Rules
Feb-20 @ 06:53 UTC (29 minutes ago) Marginal Visual Flight Rules
Wind Visibility Clouds Conditions
120° at 3 knots 5 miles
  • Scattered at 2,100' AGL
  • Mist
Temperatures Readings
Current 18°C / 64°F
Dewpoint 17°C / 63°F
Humidity 94%
Altimeter 30.33" Hg
Pressure 1027 hPa
Elevation 59
METAR KAMG 200653Z AUTO 12003KT 5SM BR SCT021 18/17 A3033 RMK AO2 SLP270 T01830172 $
Observed Flight Rules
Feb-20 @ 06:53 UTC
(29 minutes ago)
MVFR
Wind Visibility
120° at 3 knots 5 miles
Clouds
  • Scattered at 2,100' AGL
Conditions
  • Mist
Temperature Dewpoint
18°C / 64°F 17°C / 63°F
Humidity Altimeter Pressure
94% 30.33" Hg 1027 hPa